createdAt,value
2019-01-05T00:00:52.989Z,12.27
2019-01-05T00:03:39.966Z,13.03
2019-01-05T00:06:27.360Z,11.80
2019-01-05T00:09:14.797Z,10.63
2019-01-05T00:12:15.619Z,13.53
2019-01-05T00:15:11.561Z,12.07
2019-01-05T00:18:00.123Z,11.67
2019-01-05T00:20:57.903Z,11.10
2019-01-05T00:23:45.550Z,12.27
2019-01-05T00:26:46.127Z,13.07
2019-01-05T00:29:42.114Z,10.40
2019-01-05T00:32:45.819Z,10.60
2019-01-05T00:35:42.152Z,12.67
2019-01-05T00:38:30.645Z,11.13
2019-01-05T00:41:38.192Z,11.13
2019-01-05T00:44:25.420Z,10.53
2019-01-05T00:47:12.157Z,11.47
2019-01-05T00:50:09.537Z,11.10
2019-01-05T00:53:11.189Z,11.20
2019-01-05T00:55:58.135Z,10.83
2019-01-05T00:58:46.194Z,12.10
2019-01-05T01:01:43.842Z,12.87
2019-01-05T01:04:28.178Z,12.23
2019-01-05T01:07:15.109Z,11.00
2019-01-05T01:10:03.909Z,13.17
2019-01-05T01:12:51.154Z,14.20
2019-01-05T01:15:39.033Z,13.07
2019-01-05T01:18:26.241Z,14.93
2019-01-05T01:21:27.012Z,14.67
2019-01-05T01:24:14.834Z,13.93
2019-01-05T01:27:01.373Z,14.47
2019-01-05T01:29:49.389Z,14.30
2019-01-05T01:32:38.793Z,13.77
2019-01-05T01:35:45.616Z,15.27
2019-01-05T01:38:34.914Z,16.20
2019-01-05T01:41:23.007Z,17.30
2019-01-05T01:44:11.257Z,14.70
2019-01-05T01:46:58.929Z,12.20
2019-01-05T01:49:46.494Z,15.33
2019-01-05T01:52:34.409Z,15.20
2019-01-05T01:55:34.704Z,13.13
2019-01-05T01:58:29.704Z,17.07
2019-01-05T02:01:22.039Z,13.67
2019-01-05T02:04:16.588Z,16.10
2019-01-05T02:07:04.696Z,11.17
2019-01-05T02:09:53.999Z,13.40
2019-01-05T02:12:41.170Z,15.33
2019-01-05T02:15:38.745Z,13.73
2019-01-05T02:18:44.761Z,11.43
2019-01-05T02:22:18.523Z,13.27
2019-01-05T02:25:51.712Z,15.80
2019-01-05T02:29:12.954Z,8.67
2019-01-05T02:32:50.987Z,13.80
2019-01-05T02:36:22.593Z,14.13
2019-01-05T02:39:42.954Z,14.10
2019-01-05T02:42:43.580Z,14.60
2019-01-05T02:46:31.550Z,12.47
2019-01-05T02:50:31.553Z,12.80
2019-01-05T02:53:54.542Z,11.83
2019-01-05T02:57:37.340Z,14.53
2019-01-05T03:01:06.117Z,13.50
2019-01-05T03:04:22.613Z,13.20
2019-01-05T03:08:10.831Z,12.23
2019-01-05T03:11:22.865Z,9.07
2019-01-05T03:14:56.789Z,12.87
2019-01-05T03:18:14.465Z,11.20
2019-01-05T03:21:22.741Z,11.50
2019-01-05T03:24:33.057Z,13.23
2019-01-05T03:28:03.339Z,12.83
2019-01-05T03:31:32.139Z,10.47
2019-01-05T03:35:19.922Z,13.70
2019-01-05T03:38:51.752Z,12.43
2019-01-05T03:42:30.412Z,10.47
2019-01-05T03:45:49.283Z,11.07
2019-01-05T03:49:24.718Z,13.10
2019-01-05T03:52:32.915Z,11.43
2019-01-05T03:56:02.385Z,10.37
2019-01-05T03:59:33.243Z,10.40
2019-01-05T04:02:44.234Z,11.93
2019-01-05T04:06:06.610Z,11.80
2019-01-05T04:09:49.321Z,11.33
2019-01-05T04:13:14.796Z,12.57
2019-01-05T04:16:44.361Z,13.80
2019-01-05T04:19:59.536Z,13.67
2019-01-05T04:23:42.594Z,11.67
2019-01-05T04:26:53.259Z,13.33
2019-01-05T04:30:46.379Z,15.83
2019-01-05T04:33:52.676Z,15.77
2019-01-05T04:37:25.221Z,13.83
2019-01-05T04:40:55.665Z,12.87
2019-01-05T04:44:30.987Z,13.73
2019-01-05T04:47:26.493Z,11.73
2019-01-05T04:50:28.247Z,11.83
2019-01-05T04:53:58.621Z,12.13
2019-01-05T04:57:25.266Z,14.00
2019-01-05T05:01:04.882Z,13.80
2019-01-05T05:05:08.246Z,13.17
2019-01-05T05:08:11.349Z,14.53
2019-01-05T05:11:40.674Z,14.77
2019-01-05T05:15:23.485Z,8.77
2019-01-05T05:18:45.901Z,11.53
2019-01-05T05:21:59.138Z,15.23
2019-01-05T05:25:23.309Z,12.60
2019-01-05T05:28:56.047Z,14.03
2019-01-05T05:32:25.500Z,13.07
2019-01-05T05:36:10.977Z,15.07
2019-01-05T05:39:20.772Z,13.70
2019-01-05T05:43:03.709Z,15.37
2019-01-05T05:46:31.459Z,14.07
2019-01-05T05:50:26.197Z,12.27
2019-01-05T05:54:03.369Z,14.13
2019-01-05T05:57:19.661Z,19.97
2019-01-05T06:00:57.010Z,17.40
2019-01-05T06:04:27.036Z,16.17
2019-01-05T06:07:57.469Z,21.40
2019-01-05T06:11:26.173Z,18.10
2019-01-05T06:14:50.889Z,17.97
2019-01-05T06:17:58.245Z,16.77
2019-01-05T06:21:39.818Z,17.60
2019-01-05T06:25:22.656Z,18.73
2019-01-05T06:29:02.436Z,14.53
2019-01-05T06:32:27.361Z,18.33
2019-01-05T06:36:02.435Z,16.87
2019-01-05T06:39:10.573Z,17.67
2019-01-05T06:42:54.982Z,18.33
2019-01-05T06:46:23.442Z,19.33
2019-01-05T06:49:45.498Z,17.53
2019-01-05T06:53:28.857Z,15.83
2019-01-05T06:57:29.234Z,18.20
2019-01-05T07:00:52.840Z,10.83
2019-01-05T07:04:17.778Z,15.13
2019-01-05T07:07:50.055Z,15.47
2019-01-05T07:11:39.405Z,15.23
2019-01-05T07:15:03.290Z,14.93
2019-01-05T07:18:34.366Z,14.13
2019-01-05T07:21:58.375Z,14.93
2019-01-05T07:25:52.362Z,15.80
2019-01-05T07:29:16.323Z,12.37
2019-01-05T07:32:46.045Z,15.17
2019-01-05T07:35:49.056Z,16.05
2019-01-05T07:39:08.133Z,15.83
2019-01-05T07:42:52.352Z,13.10
2019-01-05T07:46:16.960Z,13.33
2019-01-05T07:49:30.452Z,8.77
2019-01-05T07:53:06.065Z,11.23
2019-01-05T07:56:15.282Z,10.47
2019-01-05T07:59:57.607Z,10.73
2019-01-05T08:03:19.931Z,9.17
2019-01-05T08:07:07.413Z,7.93
2019-01-05T08:10:54.325Z,12.30
2019-01-05T08:14:10.978Z,10.87
2019-01-05T08:17:32.760Z,11.67
2019-01-05T08:20:42.143Z,10.43
2019-01-05T08:23:51.253Z,10.87
2019-01-05T08:27:44.158Z,11.83
2019-01-05T08:31:11.308Z,12.37
2019-01-05T08:34:59.273Z,9.83
2019-01-05T08:38:20.891Z,13.47
2019-01-05T08:41:18.725Z,10.43
2019-01-05T08:44:44.326Z,8.60
2019-01-05T08:48:15.765Z,8.30
2019-01-05T08:51:24.827Z,10.57
2019-01-05T08:54:50.114Z,9.03
2019-01-05T08:58:14.420Z,9.53
2019-01-05T09:01:32.509Z,11.40
2019-01-05T09:05:05.804Z,9.77
2019-01-05T09:08:12.629Z,7.03
2019-01-05T09:11:18.914Z,9.80
2019-01-05T09:14:47.041Z,10.10
2019-01-05T09:17:58.157Z,9.03
2019-01-05T09:21:36.193Z,6.80
2019-01-05T09:24:44.889Z,9.33
2019-01-05T09:28:28.755Z,8.40
2019-01-05T09:32:11.743Z,7.30
2019-01-05T09:35:46.314Z,10.53
2019-01-05T09:39:10.351Z,10.13
2019-01-05T09:42:41.704Z,9.90
2019-01-05T09:45:57.181Z,10.97
2019-01-05T09:49:04.749Z,7.73
2019-01-05T09:52:28.419Z,9.27
2019-01-05T09:56:28.643Z,10.37
2019-01-05T09:59:51.612Z,7.17
2019-01-05T10:03:11.334Z,9.90
2019-01-05T10:06:19.095Z,10.43
2019-01-05T10:10:02.157Z,10.90
2019-01-05T10:13:42.205Z,7.13
2019-01-05T10:17:03.233Z,7.87
2019-01-05T10:20:01.973Z,9.00
2019-01-05T10:23:14.084Z,6.83
2019-01-05T10:26:51.660Z,7.90
2019-01-05T10:30:08.890Z,5.43
2019-01-05T10:33:32.114Z,6.07
2019-01-05T10:37:05.397Z,6.47
2019-01-05T10:40:46.495Z,5.23
2019-01-05T10:43:59.997Z,6.23
2019-01-05T10:47:00.077Z,5.43
2019-01-05T10:50:16.907Z,4.07
2019-01-05T10:53:30.848Z,4.87
2019-01-05T10:57:04.625Z,4.93
2019-01-05T11:00:42.167Z,5.60
2019-01-05T11:04:13.974Z,3.30
2019-01-05T11:07:28.070Z,4.53
2019-01-05T11:10:40.303Z,3.43
2019-01-05T11:13:44.260Z,2.90
2019-01-05T11:17:13.918Z,3.70
2019-01-05T11:20:25.028Z,3.53
2019-01-05T11:24:02.972Z,3.20
2019-01-05T11:27:06.642Z,2.97
2019-01-05T11:30:47.517Z,3.50
2019-01-05T11:34:10.674Z,3.23
2019-01-05T11:37:54.237Z,3.07
2019-01-05T11:41:21.662Z,3.20
2019-01-05T11:45:03.407Z,2.47
2019-01-05T11:48:18.849Z,2.63
2019-01-05T11:51:44.392Z,2.67
2019-01-05T11:55:12.724Z,3.37
2019-01-05T11:58:18.459Z,2.23
2019-01-05T12:01:24.747Z,2.73
2019-01-05T12:05:08.556Z,2.57
2019-01-05T12:08:24.266Z,2.67
2019-01-05T12:11:39.790Z,2.57
2019-01-05T12:15:09.230Z,2.53
2019-01-05T12:18:56.313Z,2.30
2019-01-05T12:22:21.810Z,2.60
2019-01-05T12:25:26.830Z,2.40
2019-01-05T12:28:42.323Z,3.40
2019-01-05T12:31:57.702Z,2.80
2019-01-05T12:35:22.354Z,2.87
2019-01-05T12:38:50.882Z,3.57
2019-01-05T12:42:34.323Z,2.33
2019-01-05T12:46:11.571Z,2.80
2019-01-05T12:49:12.465Z,3.17
2019-01-05T12:52:59.545Z,3.50
2019-01-05T12:56:09.128Z,2.73
2019-01-05T12:59:37.369Z,2.33
2019-01-05T13:02:51.793Z,3.13
2019-01-05T13:06:32.754Z,2.67
2019-01-05T13:09:53.070Z,2.70
2019-01-05T13:13:05.117Z,2.80
2019-01-05T13:16:19.486Z,2.67
2019-01-05T13:20:06.244Z,2.40
2019-01-05T13:23:44.022Z,2.50
2019-01-05T13:27:06.282Z,2.23
2019-01-05T13:30:30.301Z,2.07
2019-01-05T13:33:50.394Z,2.23
2019-01-05T13:37:09.488Z,1.90
2019-01-05T13:40:35.704Z,1.80
2019-01-05T13:44:20.199Z,2.37
2019-01-05T13:47:57.024Z,2.70
2019-01-05T13:51:21.356Z,2.60
2019-01-05T13:54:28.417Z,1.87
2019-01-05T13:57:21.362Z,1.57
2019-01-05T14:00:14.758Z,2.87
2019-01-05T14:03:12.235Z,1.90
2019-01-05T14:05:59.209Z,2.57
2019-01-05T14:08:53.238Z,1.57
2019-01-05T14:11:48.168Z,3.27
2019-01-05T14:14:37.022Z,2.70
2019-01-05T14:17:29.044Z,2.37
2019-01-05T14:20:20.302Z,3.20
2019-01-05T14:23:07.991Z,2.20
2019-01-05T14:25:59.528Z,2.93
2019-01-05T14:28:49.592Z,2.40
2019-01-05T14:31:38.458Z,2.03
2019-01-05T14:34:35.836Z,2.20
2019-01-05T14:37:22.309Z,1.87
2019-01-05T14:40:14.177Z,2.30
2019-01-05T14:43:12.962Z,2.50
2019-01-05T14:45:59.996Z,2.47
2019-01-05T14:48:51.549Z,2.80
2019-01-05T14:51:39.062Z,2.27
2019-01-05T14:54:26.594Z,2.60
2019-01-05T14:57:14.923Z,2.63
2019-01-05T15:00:09.831Z,2.87
2019-01-05T15:02:57.044Z,2.93
2019-01-05T15:05:49.657Z,2.40
2019-01-05T15:08:37.117Z,2.93
2019-01-05T15:11:43.994Z,2.13
2019-01-05T15:14:30.879Z,3.10
2019-01-05T15:17:17.725Z,2.20
2019-01-05T15:20:11.938Z,2.13
2019-01-05T15:22:59.759Z,2.40
2019-01-05T15:25:48.632Z,1.80
2019-01-05T15:28:52.512Z,2.90
2019-01-05T15:31:48.696Z,2.03
2019-01-05T15:34:46.186Z,2.67
2019-01-05T15:37:37.708Z,2.37
2019-01-05T15:40:44.536Z,2.43
2019-01-05T15:43:31.675Z,2.60
2019-01-05T15:46:42.466Z,3.37
2019-01-05T15:49:27.260Z,2.13
2019-01-05T15:52:14.565Z,2.53
2019-01-05T15:55:12.008Z,3.10
2019-01-05T15:58:06.476Z,2.00
2019-01-05T16:01:01.299Z,2.30
2019-01-05T16:03:49.630Z,2.73
2019-01-05T16:06:47.537Z,3.10
2019-01-05T16:09:37.093Z,2.63
2019-01-05T16:12:24.191Z,2.73
2019-01-05T16:15:19.524Z,2.80
2019-01-05T16:18:11.079Z,2.80
2019-01-05T16:20:59.984Z,3.03
2019-01-05T16:23:46.726Z,3.43
2019-01-05T16:26:44.429Z,3.00
2019-01-05T16:29:40.101Z,3.27
2019-01-05T16:32:37.695Z,2.67
2019-01-05T16:35:35.773Z,2.83
2019-01-05T16:38:24.644Z,2.60
2019-01-05T16:41:12.989Z,2.93
2019-01-05T16:43:59.823Z,2.70
2019-01-05T16:46:46.933Z,2.37
2019-01-05T16:49:33.815Z,2.30
2019-01-05T16:52:33.472Z,2.17
2019-01-05T16:55:34.617Z,2.57
2019-01-05T16:58:22.350Z,3.00
2019-01-05T17:01:22.746Z,3.27
2019-01-05T17:04:13.548Z,3.20
2019-01-05T17:07:02.442Z,2.77
2019-01-05T17:09:50.038Z,3.17
2019-01-05T17:12:40.159Z,3.20
2019-01-05T17:15:27.619Z,3.73
2019-01-05T17:18:16.481Z,3.73
2019-01-05T17:21:11.299Z,2.73
2019-01-05T17:24:03.269Z,2.90
2019-01-05T17:27:04.156Z,3.73
2019-01-05T17:29:53.033Z,3.00
2019-01-05T17:32:56.924Z,2.80
2019-01-05T17:35:54.669Z,2.90
2019-01-05T17:38:43.465Z,3.10
2019-01-05T17:41:44.877Z,2.90
2019-01-05T17:44:31.969Z,3.00
2019-01-05T17:47:26.307Z,3.50
2019-01-05T17:50:07.379Z,3.17
2019-01-05T17:52:55.529Z,3.03
2019-01-05T17:55:53.381Z,3.53
2019-01-05T17:58:40.370Z,3.47
2019-01-05T18:01:32.340Z,3.20
2019-01-05T18:04:33.579Z,4.07
2019-01-05T18:07:20.976Z,3.90
2019-01-05T18:10:18.992Z,3.40
2019-01-05T18:13:12.403Z,3.83
2019-01-05T18:15:56.036Z,3.73
2019-01-05T18:18:43.151Z,3.37
2019-01-05T18:21:30.645Z,3.00
2019-01-05T18:24:18.956Z,4.43
2019-01-05T18:27:15.404Z,3.77
2019-01-05T18:30:03.003Z,4.37
2019-01-05T18:32:57.374Z,4.80
2019-01-05T18:35:44.879Z,4.47
2019-01-05T18:38:32.404Z,5.30
2019-01-05T18:41:26.892Z,4.10
2019-01-05T18:44:14.079Z,5.40
2019-01-05T18:47:01.522Z,6.27
2019-01-05T18:49:49.555Z,5.33
2019-01-05T18:52:37.927Z,5.13
2019-01-05T18:55:44.420Z,4.43
2019-01-05T18:58:31.648Z,4.10
2019-01-05T19:01:17.278Z,5.03
2019-01-05T19:04:04.402Z,5.10
2019-01-05T19:06:59.257Z,4.53
2019-01-05T19:09:53.711Z,3.80
2019-01-05T19:12:49.925Z,3.53
2019-01-05T19:15:40.321Z,3.87
2019-01-05T19:18:25.739Z,3.77
2019-01-05T19:21:13.447Z,4.20
2019-01-05T19:24:05.587Z,4.03
2019-01-05T19:26:52.991Z,3.67
2019-01-05T19:29:58.397Z,3.47
2019-01-05T19:32:53.791Z,4.00
2019-01-05T19:35:41.601Z,4.00
2019-01-05T19:38:48.436Z,4.07
2019-01-05T19:41:32.009Z,3.87
2019-01-05T19:44:33.152Z,4.20
2019-01-05T19:47:24.790Z,4.10
2019-01-05T19:50:15.886Z,3.87
2019-01-05T19:53:13.060Z,3.37
2019-01-05T19:56:01.247Z,3.93
2019-01-05T19:58:53.157Z,4.20
2019-01-05T20:01:41.562Z,3.43
2019-01-05T20:04:28.969Z,3.60
2019-01-05T20:07:14.370Z,3.90
2019-01-05T20:10:00.289Z,2.93
2019-01-05T20:13:00.013Z,3.60
2019-01-05T20:15:51.635Z,3.67
2019-01-05T20:18:39.332Z,3.33
2019-01-05T20:21:31.030Z,4.10
2019-01-05T20:24:31.685Z,3.63
2019-01-05T20:27:19.805Z,3.27
2019-01-05T20:30:07.667Z,3.27
2019-01-05T20:32:55.781Z,3.53
2019-01-05T20:35:37.507Z,3.97
2019-01-05T20:38:24.903Z,3.47
2019-01-05T20:41:29.148Z,3.73
2019-01-05T20:44:23.973Z,3.80
2019-01-05T20:47:18.682Z,3.47
2019-01-05T20:50:06.153Z,4.97
2019-01-05T20:52:53.634Z,4.33
2019-01-05T20:55:41.173Z,4.33
2019-01-05T20:58:28.769Z,3.63
2019-01-05T21:01:15.295Z,4.73
2019-01-05T21:04:16.537Z,5.27
2019-01-05T21:06:56.740Z,4.70
2019-01-05T21:09:57.919Z,3.87
2019-01-05T21:12:52.115Z,4.73
2019-01-05T21:15:50.033Z,4.80
2019-01-05T21:18:48.362Z,4.60
2019-01-05T21:21:36.335Z,4.77
2019-01-05T21:24:24.705Z,4.20
2019-01-05T21:27:12.966Z,3.60
2019-01-05T21:30:11.748Z,4.80
2019-01-05T21:33:03.469Z,4.87
2019-01-05T21:35:52.326Z,4.73
2019-01-05T21:38:40.564Z,3.97
2019-01-05T21:41:27.865Z,4.10
2019-01-05T21:44:21.221Z,5.00
2019-01-05T21:47:11.010Z,4.53
2019-01-05T21:50:17.345Z,4.73
2019-01-05T21:53:01.324Z,4.37
2019-01-05T21:55:59.314Z,4.53
2019-01-05T21:59:03.413Z,4.67
2019-01-05T22:01:57.872Z,4.20
2019-01-05T22:04:43.997Z,4.40
2019-01-05T22:07:32.897Z,4.23
2019-01-05T22:10:26.728Z,4.47
2019-01-05T22:13:14.396Z,4.90
2019-01-05T22:16:03.296Z,4.57
2019-01-05T22:19:09.004Z,4.60
2019-01-05T22:21:56.440Z,4.50
2019-01-05T22:24:50.917Z,4.50
2019-01-05T22:27:55.013Z,4.20
2019-01-05T22:30:59.142Z,3.97
2019-01-05T22:34:00.509Z,3.80
2019-01-05T22:36:52.536Z,4.07
2019-01-05T22:39:47.229Z,4.40
2019-01-05T22:42:38.573Z,4.37
2019-01-05T22:45:18.476Z,4.23
2019-01-05T22:48:10.214Z,4.50
2019-01-05T22:51:14.489Z,4.43
2019-01-05T22:54:06.329Z,4.70
2019-01-05T22:57:03.535Z,3.60
2019-01-05T23:00:08.900Z,4.77
2019-01-05T23:03:06.841Z,4.53
2019-01-05T23:06:06.324Z,4.27
2019-01-05T23:08:43.777Z,4.40
2019-01-05T23:11:32.526Z,4.97
2019-01-05T23:14:36.427Z,5.20
2019-01-05T23:17:23.565Z,4.87
2019-01-05T23:20:10.728Z,3.80
2019-01-05T23:23:08.524Z,5.13
2019-01-05T23:25:58.320Z,5.17
2019-01-05T23:28:53.119Z,4.70
2019-01-05T23:31:51.165Z,4.47
2019-01-05T23:34:40.205Z,5.17
2019-01-05T23:37:27.237Z,4.73
2019-01-05T23:40:14.185Z,5.17
2019-01-05T23:43:02.226Z,5.07
2019-01-05T23:45:49.888Z,4.63
2019-01-05T23:48:32.588Z,4.33
2019-01-05T23:51:30.442Z,5.10
2019-01-05T23:54:22.131Z,4.20
2019-01-05T23:57:13.185Z,5.30
2019-01-05T23:59:55.631Z,4.77
